Pagrindinis puslapis
METAR-TAF:

METAR-TAF

Oro uostai :

Bartow, Florida, Jungtinės Amerikos Valstijos

platuma: 27-57N, ilguma: 081-47W, Aukštis: 39 m

Dabartinis oras

Ataskaita buvo paskelbta 12 minutes, ne 00:35 UTC
Vėjas 4 kt nuo kintamojo kryptimis su gūsio iki 10 kt
Temperatūra 21°C
Drėgmė 69%
Slėgis 1016 hPa
Matomumas: 16.1 km
Apsiniaukę ne aukštis 5500 ft

METAR: KBOW 250035Z AUTO VRB04G10KT 10SM OVC055 21/15 A2999 RMK AO2

Laikas: 19:47 (00:47 UTC)


TAF: trūkstamas

Orai ataskaitas ir orų prognozės (METAR, TAF).

turimą stotys yra geltonos ir raudonos taškus žemėlapyje.

Perkelti pele per norėdami pamatyti stoties vardą.

Tada spustelėkite, norėdami matyti oro stebėjimo ir prognozės.

Norėdami pakeisti žemėlapį: spustelėkite ant žalios mygtukų su juodo kryžiaus žemyn,; žalią mygtuką su brūkšneliu, jei norite nutolinti; arba žalių rodyklių gretimoms žemėlapius.


METAR-TAF: